sensor_id;sensor_type;location;lat;lon;timestamp;P1;durP1;ratioP1;P2;durP2;ratioP2
4430;SDS011;2228;48.140;11.488;2024-02-21T00:01:52;6.13;;;1.67;;
4430;SDS011;2228;48.140;11.488;2024-02-21T00:04:20;6.70;;;2.40;;
4430;SDS011;2228;48.140;11.488;2024-02-21T00:06:47;8.80;;;2.22;;
4430;SDS011;2228;48.140;11.488;2024-02-21T00:09:15;4.97;;;2.10;;
4430;SDS011;2228;48.140;11.488;2024-02-21T00:11:43;8.32;;;2.30;;
4430;SDS011;2228;48.140;11.488;2024-02-21T00:14:12;6.20;;;1.75;;
4430;SDS011;2228;48.140;11.488;2024-02-21T00:16:39;5.45;;;2.00;;
4430;SDS011;2228;48.140;11.488;2024-02-21T00:19:07;5.70;;;1.80;;
4430;SDS011;2228;48.140;11.488;2024-02-21T00:21:34;6.82;;;1.95;;
4430;SDS011;2228;48.140;11.488;2024-02-21T00:24:01;8.50;;;2.50;;
4430;SDS011;2228;48.140;11.488;2024-02-21T00:26:29;4.80;;;2.03;;
4430;SDS011;2228;48.140;11.488;2024-02-21T00:28:56;6.95;;;2.20;;
4430;SDS011;2228;48.140;11.488;2024-02-21T00:31:25;4.60;;;1.90;;
4430;SDS011;2228;48.140;11.488;2024-02-21T00:33:52;7.35;;;1.90;;
4430;SDS011;2228;48.140;11.488;2024-02-21T00:36:20;4.25;;;1.95;;
4430;SDS011;2228;48.140;11.488;2024-02-21T00:38:47;10.02;;;2.60;;
4430;SDS011;2228;48.140;11.488;2024-02-21T00:41:15;5.33;;;2.20;;
4430;SDS011;2228;48.140;11.488;2024-02-21T00:43:42;9.07;;;2.50;;
4430;SDS011;2228;48.140;11.488;2024-02-21T00:46:09;4.95;;;2.20;;
4430;SDS011;2228;48.140;11.488;2024-02-21T00:48:38;4.30;;;1.70;;
4430;SDS011;2228;48.140;11.488;2024-02-21T00:51:05;5.88;;;1.98;;
4430;SDS011;2228;48.140;11.488;2024-02-21T00:53:32;3.72;;;1.90;;
4430;SDS011;2228;48.140;11.488;2024-02-21T00:56:03;4.15;;;2.00;;
4430;SDS011;2228;48.140;11.488;2024-02-21T00:58:31;6.30;;;2.05;;
4430;SDS011;2228;48.140;11.488;2024-02-21T01:00:58;6.15;;;1.70;;
4430;SDS011;2228;48.140;11.488;2024-02-21T01:03:26;7.60;;;1.90;;
4430;SDS011;2228;48.140;11.488;2024-02-21T01:05:55;5.93;;;2.17;;
4430;SDS011;2228;48.140;11.488;2024-02-21T01:08:22;5.10;;;1.95;;
4430;SDS011;2228;48.140;11.488;2024-02-21T01:10:52;5.53;;;1.80;;
4430;SDS011;2228;48.140;11.488;2024-02-21T01:13:19;3.25;;;1.90;;
4430;SDS011;2228;48.140;11.488;2024-02-21T01:15:46;8.30;;;2.40;;
4430;SDS011;2228;48.140;11.488;2024-02-21T01:18:13;5.68;;;1.80;;
4430;SDS011;2228;48.140;11.488;2024-02-21T01:20:41;6.63;;;1.90;;
4430;SDS011;2228;48.140;11.488;2024-02-21T01:23:10;4.63;;;2.10;;
4430;SDS011;2228;48.140;11.488;2024-02-21T01:25:37;3.67;;;1.75;;
4430;SDS011;2228;48.140;11.488;2024-02-21T01:28:05;7.63;;;1.70;;
4430;SDS011;2228;48.140;11.488;2024-02-21T01:30:32;4.07;;;1.60;;
4430;SDS011;2228;48.140;11.488;2024-02-21T01:32:59;5.72;;;1.90;;
4430;SDS011;2228;48.140;11.488;2024-02-21T01:35:27;4.90;;;1.67;;
4430;SDS011;2228;48.140;11.488;2024-02-21T01:37:54;4.60;;;2.10;;
4430;SDS011;2228;48.140;11.488;2024-02-21T01:40:23;6.40;;;2.40;;
4430;SDS011;2228;48.140;11.488;2024-02-21T01:42:50;4.10;;;1.80;;
4430;SDS011;2228;48.140;11.488;2024-02-21T01:45:20;3.67;;;1.50;;
4430;SDS011;2228;48.140;11.488;2024-02-21T01:47:47;7.25;;;2.03;;
4430;SDS011;2228;48.140;11.488;2024-02-21T01:50:15;3.80;;;1.37;;
4430;SDS011;2228;48.140;11.488;2024-02-21T01:52:42;5.70;;;1.80;;
4430;SDS011;2228;48.140;11.488;2024-02-21T01:55:11;5.78;;;1.67;;
4430;SDS011;2228;48.140;11.488;2024-02-21T01:57:40;4.57;;;2.10;;
4430;SDS011;2228;48.140;11.488;2024-02-21T02:00:10;2.47;;;1.58;;
4430;SDS011;2228;48.140;11.488;2024-02-21T02:02:38;3.92;;;1.90;;
4430;SDS011;2228;48.140;11.488;2024-02-21T02:05:06;4.43;;;1.40;;
4430;SDS011;2228;48.140;11.488;2024-02-21T02:07:34;5.83;;;1.70;;
4430;SDS011;2228;48.140;11.488;2024-02-21T02:10:01;2.55;;;1.20;;
4430;SDS011;2228;48.140;11.488;2024-02-21T02:12:28;3.92;;;1.35;;
4430;SDS011;2228;48.140;11.488;2024-02-21T02:14:59;2.30;;;1.30;;
4430;SDS011;2228;48.140;11.488;2024-02-21T02:17:26;8.25;;;1.90;;
4430;SDS011;2228;48.140;11.488;2024-02-21T02:19:54;4.90;;;1.58;;
4430;SDS011;2228;48.140;11.488;2024-02-21T02:22:22;4.60;;;1.50;;
4430;SDS011;2228;48.140;11.488;2024-02-21T02:24:52;4.17;;;1.30;;
4430;SDS011;2228;48.140;11.488;2024-02-21T02:27:19;3.75;;;1.35;;
4430;SDS011;2228;48.140;11.488;2024-02-21T02:29:48;3.10;;;1.50;;
4430;SDS011;2228;48.140;11.488;2024-02-21T02:32:15;4.70;;;1.60;;
4430;SDS011;2228;48.140;11.488;2024-02-21T02:34:42;3.40;;;1.55;;
4430;SDS011;2228;48.140;11.488;2024-02-21T02:37:10;6.72;;;1.10;;
4430;SDS011;2228;48.140;11.488;2024-02-21T02:39:39;3.83;;;1.27;;
4430;SDS011;2228;48.140;11.488;2024-02-21T02:42:08;5.82;;;1.40;;
4430;SDS011;2228;48.140;11.488;2024-02-21T02:44:35;4.20;;;1.25;;
4430;SDS011;2228;48.140;11.488;2024-02-21T02:47:02;3.03;;;1.17;;
4430;SDS011;2228;48.140;11.488;2024-02-21T02:49:30;3.50;;;1.42;;
4430;SDS011;2228;48.140;11.488;2024-02-21T02:51:57;4.57;;;1.50;;
4430;SDS011;2228;48.140;11.488;2024-02-21T02:54:24;2.85;;;1.13;;
4430;SDS011;2228;48.140;11.488;2024-02-21T02:56:51;6.60;;;1.40;;
4430;SDS011;2228;48.140;11.488;2024-02-21T02:59:20;5.22;;;1.30;;
4430;SDS011;2228;48.140;11.488;2024-02-21T03:01:48;2.08;;;1.17;;
4430;SDS011;2228;48.140;11.488;2024-02-21T03:04:15;3.63;;;1.15;;
4430;SDS011;2228;48.140;11.488;2024-02-21T03:06:43;3.13;;;1.20;;
4430;SDS011;2228;48.140;11.488;2024-02-21T03:09:10;3.23;;;1.10;;
4430;SDS011;2228;48.140;11.488;2024-02-21T03:11:37;2.53;;;1.40;;
4430;SDS011;2228;48.140;11.488;2024-02-21T03:14:06;5.20;;;1.58;;
4430;SDS011;2228;48.140;11.488;2024-02-21T03:16:34;5.70;;;1.40;;
4430;SDS011;2228;48.140;11.488;2024-02-21T03:19:02;2.63;;;1.30;;
4430;SDS011;2228;48.140;11.488;2024-02-21T03:21:29;5.30;;;1.63;;
4430;SDS011;2228;48.140;11.488;2024-02-21T03:23:56;2.72;;;1.40;;
4430;SDS011;2228;48.140;11.488;2024-02-21T03:26:23;4.50;;;1.50;;
4430;SDS011;2228;48.140;11.488;2024-02-21T03:28:51;3.30;;;1.10;;
4430;SDS011;2228;48.140;11.488;2024-02-21T03:31:18;3.00;;;1.30;;
4430;SDS011;2228;48.140;11.488;2024-02-21T03:33:47;3.65;;;1.40;;
4430;SDS011;2228;48.140;11.488;2024-02-21T03:36:17;3.85;;;1.30;;
4430;SDS011;2228;48.140;11.488;2024-02-21T03:38:44;4.20;;;1.52;;
4430;SDS011;2228;48.140;11.488;2024-02-21T03:41:11;3.73;;;1.20;;
4430;SDS011;2228;48.140;11.488;2024-02-21T03:43:38;3.70;;;1.30;;
4430;SDS011;2228;48.140;11.488;2024-02-21T03:46:06;3.40;;;1.00;;
4430;SDS011;2228;48.140;11.488;2024-02-21T03:48:33;1.70;;;1.10;;
4430;SDS011;2228;48.140;11.488;2024-02-21T03:51:02;4.55;;;1.10;;
4430;SDS011;2228;48.140;11.488;2024-02-21T03:53:30;3.33;;;0.95;;
4430;SDS011;2228;48.140;11.488;2024-02-21T03:55:57;3.80;;;1.10;;
4430;SDS011;2228;48.140;11.488;2024-02-21T03:58:30;4.10;;;1.50;;
4430;SDS011;2228;48.140;11.488;2024-02-21T04:00:59;2.90;;;1.30;;
4430;SDS011;2228;48.140;11.488;2024-02-21T04:03:27;2.60;;;0.90;;
4430;SDS011;2228;48.140;11.488;2024-02-21T04:05:54;2.50;;;1.03;;
4430;SDS011;2228;48.140;11.488;2024-02-21T04:08:23;2.75;;;0.93;;
4430;SDS011;2228;48.140;11.488;2024-02-21T04:10:50;4.45;;;1.30;;
4430;SDS011;2228;48.140;11.488;2024-02-21T04:13:18;2.05;;;1.10;;
4430;SDS011;2228;48.140;11.488;2024-02-21T04:15:45;2.80;;;1.00;;
4430;SDS011;2228;48.140;11.488;2024-02-21T04:18:12;3.20;;;1.02;;
4430;SDS011;2228;48.140;11.488;2024-02-21T04:20:40;2.65;;;1.10;;
4430;SDS011;2228;48.140;11.488;2024-02-21T04:23:07;4.40;;;1.30;;
4430;SDS011;2228;48.140;11.488;2024-02-21T04:25:36;4.00;;;1.20;;
4430;SDS011;2228;48.140;11.488;2024-02-21T04:28:05;2.70;;;1.00;;
4430;SDS011;2228;48.140;11.488;2024-02-21T04:30:32;3.20;;;1.10;;
4430;SDS011;2228;48.140;11.488;2024-02-21T04:33:00;2.63;;;1.30;;
4430;SDS011;2228;48.140;11.488;2024-02-21T04:35:28;2.30;;;1.08;;
4430;SDS011;2228;48.140;11.488;2024-02-21T04:37:55;3.80;;;1.10;;
4430;SDS011;2228;48.140;11.488;2024-02-21T04:40:23;2.50;;;1.10;;
4430;SDS011;2228;48.140;11.488;2024-02-21T04:42:52;5.50;;;1.40;;
4430;SDS011;2228;48.140;11.488;2024-02-21T04:45:19;2.55;;;0.90;;
4430;SDS011;2228;48.140;11.488;2024-02-21T04:47:46;5.40;;;1.10;;
4430;SDS011;2228;48.140;11.488;2024-02-21T04:50:17;4.18;;;1.00;;
4430;SDS011;2228;48.140;11.488;2024-02-21T04:52:44;3.20;;;1.40;;
4430;SDS011;2228;48.140;11.488;2024-02-21T04:55:11;3.38;;;0.90;;
4430;SDS011;2228;48.140;11.488;2024-02-21T04:57:39;2.60;;;0.90;;
4430;SDS011;2228;48.140;11.488;2024-02-21T05:00:08;4.00;;;1.20;;
4430;SDS011;2228;48.140;11.488;2024-02-21T05:02:36;2.25;;;1.20;;
4430;SDS011;2228;48.140;11.488;2024-02-21T05:05:03;2.55;;;0.90;;
4430;SDS011;2228;48.140;11.488;2024-02-21T05:07:31;4.10;;;1.45;;
4430;SDS011;2228;48.140;11.488;2024-02-21T05:09:58;3.53;;;0.98;;
4430;SDS011;2228;48.140;11.488;2024-02-21T05:12:27;3.03;;;1.58;;
4430;SDS011;2228;48.140;11.488;2024-02-21T05:14:55;1.80;;;1.30;;
4430;SDS011;2228;48.140;11.488;2024-02-21T05:17:24;2.90;;;1.20;;
4430;SDS011;2228;48.140;11.488;2024-02-21T05:19:51;3.47;;;1.13;;
4430;SDS011;2228;48.140;11.488;2024-02-21T05:22:18;5.13;;;1.50;;
4430;SDS011;2228;48.140;11.488;2024-02-21T05:24:45;2.90;;;1.10;;
4430;SDS011;2228;48.140;11.488;2024-02-21T05:27:13;2.55;;;0.95;;
4430;SDS011;2228;48.140;11.488;2024-02-21T05:29:40;2.33;;;1.07;;
4430;SDS011;2228;48.140;11.488;2024-02-21T05:32:07;1.90;;;1.00;;
4430;SDS011;2228;48.140;11.488;2024-02-21T05:34:36;1.40;;;0.90;;
4430;SDS011;2228;48.140;11.488;2024-02-21T05:37:03;3.38;;;1.10;;
4430;SDS011;2228;48.140;11.488;2024-02-21T05:39:31;2.08;;;1.00;;
4430;SDS011;2228;48.140;11.488;2024-02-21T05:41:58;4.50;;;1.00;;
4430;SDS011;2228;48.140;11.488;2024-02-21T05:44:27;2.85;;;0.90;;
4430;SDS011;2228;48.140;11.488;2024-02-21T05:46:54;2.40;;;1.00;;
4430;SDS011;2228;48.140;11.488;2024-02-21T05:49:21;3.22;;;1.00;;
4430;SDS011;2228;48.140;11.488;2024-02-21T05:51:50;8.77;;;1.40;;
4430;SDS011;2228;48.140;11.488;2024-02-21T05:54:17;3.25;;;1.30;;
4430;SDS011;2228;48.140;11.488;2024-02-21T05:56:45;3.47;;;0.90;;
4430;SDS011;2228;48.140;11.488;2024-02-21T05:59:12;3.05;;;1.00;;
4430;SDS011;2228;48.140;11.488;2024-02-21T06:01:39;2.50;;;1.05;;
4430;SDS011;2228;48.140;11.488;2024-02-21T06:04:09;1.83;;;1.00;;
4430;SDS011;2228;48.140;11.488;2024-02-21T06:06:36;3.83;;;1.00;;
4430;SDS011;2228;48.140;11.488;2024-02-21T06:09:05;5.13;;;1.10;;
4430;SDS011;2228;48.140;11.488;2024-02-21T06:11:33;5.25;;;1.00;;
4430;SDS011;2228;48.140;11.488;2024-02-21T06:14:02;3.58;;;1.27;;
4430;SDS011;2228;48.140;11.488;2024-02-21T06:16:30;6.78;;;1.48;;
4430;SDS011;2228;48.140;11.488;2024-02-21T06:18:57;8.53;;;1.33;;
4430;SDS011;2228;48.140;11.488;2024-02-21T06:21:28;9.13;;;1.60;;
4430;SDS011;2228;48.140;11.488;2024-02-21T06:23:55;7.05;;;1.20;;
4430;SDS011;2228;48.140;11.488;2024-02-21T06:26:24;4.80;;;1.30;;
4430;SDS011;2228;48.140;11.488;2024-02-21T06:28:51;4.75;;;1.00;;
4430;SDS011;2228;48.140;11.488;2024-02-21T06:31:19;1.70;;;1.00;;
4430;SDS011;2228;48.140;11.488;2024-02-21T06:33:46;4.50;;;1.30;;
4430;SDS011;2228;48.140;11.488;2024-02-21T06:36:13;4.57;;;1.02;;
4430;SDS011;2228;48.140;11.488;2024-02-21T06:38:40;2.67;;;1.00;;
4430;SDS011;2228;48.140;11.488;2024-02-21T06:41:14;1.60;;;0.90;;
4430;SDS011;2228;48.140;11.488;2024-02-21T06:43:43;1.53;;;1.00;;
4430;SDS011;2228;48.140;11.488;2024-02-21T06:46:11;2.95;;;1.15;;
4430;SDS011;2228;48.140;11.488;2024-02-21T06:48:38;3.50;;;1.00;;
4430;SDS011;2228;48.140;11.488;2024-02-21T06:51:05;4.18;;;1.42;;
4430;SDS011;2228;48.140;11.488;2024-02-21T06:53:33;4.78;;;1.40;;
4430;SDS011;2228;48.140;11.488;2024-02-21T06:56:01;1.47;;;1.10;;
4430;SDS011;2228;48.140;11.488;2024-02-21T06:58:28;3.30;;;1.02;;
4430;SDS011;2228;48.140;11.488;2024-02-21T07:00:57;2.60;;;1.20;;
4430;SDS011;2228;48.140;11.488;2024-02-21T07:03:24;2.13;;;1.00;;
4430;SDS011;2228;48.140;11.488;2024-02-21T07:05:51;3.35;;;1.30;;
4430;SDS011;2228;48.140;11.488;2024-02-21T07:08:19;3.17;;;1.10;;
4430;SDS011;2228;48.140;11.488;2024-02-21T07:10:47;5.80;;;1.10;;
4430;SDS011;2228;48.140;11.488;2024-02-21T07:13:14;5.30;;;1.20;;
4430;SDS011;2228;48.140;11.488;2024-02-21T07:15:42;4.68;;;1.90;;
4430;SDS011;2228;48.140;11.488;2024-02-21T07:18:11;3.17;;;1.10;;
4430;SDS011;2228;48.140;11.488;2024-02-21T07:20:38;1.33;;;0.70;;
4430;SDS011;2228;48.140;11.488;2024-02-21T07:23:06;1.50;;;1.00;;
4430;SDS011;2228;48.140;11.488;2024-02-21T07:25:33;9.63;;;1.00;;
4430;SDS011;2228;48.140;11.488;2024-02-21T07:28:01;5.78;;;1.20;;
4430;SDS011;2228;48.140;11.488;2024-02-21T07:31:02;2.25;;;0.90;;
4430;SDS011;2228;48.140;11.488;2024-02-21T07:33:21;2.20;;;0.90;;
4430;SDS011;2228;48.140;11.488;2024-02-21T07:35:48;8.50;;;1.02;;
4430;SDS011;2228;48.140;11.488;2024-02-21T07:38:15;4.00;;;0.90;;
4430;SDS011;2228;48.140;11.488;2024-02-21T07:40:44;2.83;;;0.90;;
4430;SDS011;2228;48.140;11.488;2024-02-21T07:43:11;5.63;;;1.05;;
4430;SDS011;2228;48.140;11.488;2024-02-21T07:45:38;1.60;;;0.90;;
4430;SDS011;2228;48.140;11.488;2024-02-21T07:48:06;3.40;;;0.90;;
4430;SDS011;2228;48.140;11.488;2024-02-21T07:50:34;2.47;;;1.10;;
4430;SDS011;2228;48.140;11.488;2024-02-21T07:53:02;4.65;;;1.20;;
4430;SDS011;2228;48.140;11.488;2024-02-21T07:55:30;5.80;;;1.10;;
4430;SDS011;2228;48.140;11.488;2024-02-21T07:57:57;2.80;;;1.70;;
4430;SDS011;2228;48.140;11.488;2024-02-21T08:00:24;1.20;;;0.80;;
4430;SDS011;2228;48.140;11.488;2024-02-21T08:02:51;1.98;;;1.00;;
4430;SDS011;2228;48.140;11.488;2024-02-21T08:05:19;1.40;;;0.80;;
4430;SDS011;2228;48.140;11.488;2024-02-21T08:07:55;4.80;;;1.00;;
4430;SDS011;2228;48.140;11.488;2024-02-21T08:10:34;2.50;;;0.93;;
4430;SDS011;2228;48.140;11.488;2024-02-21T08:13:01;3.17;;;1.13;;
4430;SDS011;2228;48.140;11.488;2024-02-21T08:15:29;3.20;;;1.00;;
4430;SDS011;2228;48.140;11.488;2024-02-21T08:17:56;2.00;;;1.00;;
4430;SDS011;2228;48.140;11.488;2024-02-21T08:20:29;3.50;;;1.00;;
4430;SDS011;2228;48.140;11.488;2024-02-21T08:22:57;2.88;;;1.00;;
4430;SDS011;2228;48.140;11.488;2024-02-21T08:25:26;6.60;;;2.15;;
4430;SDS011;2228;48.140;11.488;2024-02-21T08:27:55;4.00;;;0.90;;
4430;SDS011;2228;48.140;11.488;2024-02-21T08:30:22;3.90;;;1.00;;
4430;SDS011;2228;48.140;11.488;2024-02-21T08:32:49;3.90;;;0.93;;
4430;SDS011;2228;48.140;11.488;2024-02-21T08:35:19;4.35;;;0.80;;
4430;SDS011;2228;48.140;11.488;2024-02-21T08:37:47;4.10;;;0.90;;
4430;SDS011;2228;48.140;11.488;2024-02-21T08:40:16;2.30;;;1.10;;
4430;SDS011;2228;48.140;11.488;2024-02-21T08:42:49;2.47;;;1.10;;
4430;SDS011;2228;48.140;11.488;2024-02-21T08:45:16;3.20;;;1.00;;
4430;SDS011;2228;48.140;11.488;2024-02-21T08:47:43;2.50;;;1.20;;
4430;SDS011;2228;48.140;11.488;2024-02-21T08:50:11;2.47;;;1.00;;
4430;SDS011;2228;48.140;11.488;2024-02-21T08:52:38;3.70;;;0.82;;
4430;SDS011;2228;48.140;11.488;2024-02-21T08:55:06;2.88;;;1.20;;
4430;SDS011;2228;48.140;11.488;2024-02-21T08:57:34;2.08;;;0.90;;
4430;SDS011;2228;48.140;11.488;2024-02-21T09:00:03;3.92;;;1.10;;
4430;SDS011;2228;48.140;11.488;2024-02-21T09:02:34;3.20;;;0.80;;
4430;SDS011;2228;48.140;11.488;2024-02-21T09:05:03;4.10;;;0.70;;
4430;SDS011;2228;48.140;11.488;2024-02-21T09:07:31;5.13;;;0.98;;
4430;SDS011;2228;48.140;11.488;2024-02-21T09:09:58;5.65;;;0.90;;
4430;SDS011;2228;48.140;11.488;2024-02-21T09:12:26;4.97;;;1.00;;
4430;SDS011;2228;48.140;11.488;2024-02-21T09:14:56;4.47;;;0.90;;
4430;SDS011;2228;48.140;11.488;2024-02-21T09:17:23;2.57;;;0.80;;
4430;SDS011;2228;48.140;11.488;2024-02-21T09:19:51;0.80;;;0.70;;
4430;SDS011;2228;48.140;11.488;2024-02-21T09:22:20;1.73;;;0.70;;
4430;SDS011;2228;48.140;11.488;2024-02-21T09:24:47;3.45;;;0.80;;
4430;SDS011;2228;48.140;11.488;2024-02-21T09:27:14;0.95;;;0.60;;
4430;SDS011;2228;48.140;11.488;2024-02-21T09:29:41;1.42;;;0.70;;
4430;SDS011;2228;48.140;11.488;2024-02-21T09:32:10;2.22;;;0.80;;
4430;SDS011;2228;48.140;11.488;2024-02-21T09:34:39;1.70;;;0.80;;
4430;SDS011;2228;48.140;11.488;2024-02-21T09:37:06;4.07;;;0.90;;
4430;SDS011;2228;48.140;11.488;2024-02-21T09:39:33;2.05;;;0.80;;
4430;SDS011;2228;48.140;11.488;2024-02-21T09:42:03;1.10;;;0.60;;
4430;SDS011;2228;48.140;11.488;2024-02-21T09:44:33;1.75;;;0.70;;
4430;SDS011;2228;48.140;11.488;2024-02-21T09:47:03;1.40;;;0.75;;
4430;SDS011;2228;48.140;11.488;2024-02-21T09:49:32;2.30;;;0.80;;
4430;SDS011;2228;48.140;11.488;2024-02-21T09:52:03;1.83;;;0.70;;
4430;SDS011;2228;48.140;11.488;2024-02-21T09:54:32;3.00;;;0.70;;
4430;SDS011;2228;48.140;11.488;2024-02-21T09:56:59;13.07;;;1.00;;
4430;SDS011;2228;48.140;11.488;2024-02-21T09:59:27;8.25;;;1.00;;
4430;SDS011;2228;48.140;11.488;2024-02-21T10:01:54;4.88;;;0.80;;
4430;SDS011;2228;48.140;11.488;2024-02-21T10:04:22;2.42;;;0.60;;
4430;SDS011;2228;48.140;11.488;2024-02-21T10:06:50;1.13;;;0.70;;
4430;SDS011;2228;48.140;11.488;2024-02-21T10:09:21;1.40;;;0.70;;
4430;SDS011;2228;48.140;11.488;2024-02-21T10:11:49;2.15;;;0.70;;
4430;SDS011;2228;48.140;11.488;2024-02-21T10:14:16;5.10;;;0.80;;
4430;SDS011;2228;48.140;11.488;2024-02-21T10:16:44;1.60;;;0.77;;
4430;SDS011;2228;48.140;11.488;2024-02-21T10:19:18;1.20;;;0.70;;
4430;SDS011;2228;48.140;11.488;2024-02-21T10:22:00;3.00;;;0.80;;
4430;SDS011;2228;48.140;11.488;2024-02-21T10:24:28;4.07;;;1.00;;
4430;SDS011;2228;48.140;11.488;2024-02-21T10:26:59;2.17;;;1.00;;
4430;SDS011;2228;48.140;11.488;2024-02-21T10:29:28;2.83;;;0.70;;
4430;SDS011;2228;48.140;11.488;2024-02-21T10:32:03;1.50;;;0.80;;
4430;SDS011;2228;48.140;11.488;2024-02-21T10:34:31;4.03;;;0.90;;
4430;SDS011;2228;48.140;11.488;2024-02-21T10:37:03;1.00;;;0.70;;
4430;SDS011;2228;48.140;11.488;2024-02-21T10:39:31;2.80;;;0.80;;
4430;SDS011;2228;48.140;11.488;2024-02-21T10:41:59;3.40;;;0.70;;
4430;SDS011;2228;48.140;11.488;2024-02-21T10:44:28;2.97;;;0.90;;
4430;SDS011;2228;48.140;11.488;2024-02-21T10:46:56;1.05;;;0.70;;
4430;SDS011;2228;48.140;11.488;2024-02-21T10:49:24;2.35;;;0.70;;
4430;SDS011;2228;48.140;11.488;2024-02-21T10:51:54;3.50;;;0.90;;
4430;SDS011;2228;48.140;11.488;2024-02-21T10:54:29;10.25;;;1.50;;
4430;SDS011;2228;48.140;11.488;2024-02-21T10:56:57;4.00;;;0.73;;
4430;SDS011;2228;48.140;11.488;2024-02-21T10:59:26;1.88;;;0.70;;
4430;SDS011;2228;48.140;11.488;2024-02-21T11:01:55;1.70;;;0.70;;
4430;SDS011;2228;48.140;11.488;2024-02-21T11:04:22;2.80;;;0.70;;
4430;SDS011;2228;48.140;11.488;2024-02-21T11:06:50;4.93;;;0.70;;
4430;SDS011;2228;48.140;11.488;2024-02-21T11:09:28;1.50;;;0.60;;
4430;SDS011;2228;48.140;11.488;2024-02-21T11:11:58;2.60;;;0.70;;
4430;SDS011;2228;48.140;11.488;2024-02-21T11:14:26;0.90;;;0.60;;
4430;SDS011;2228;48.140;11.488;2024-02-21T11:16:57;3.10;;;0.60;;
4430;SDS011;2228;48.140;11.488;2024-02-21T11:19:25;1.10;;;0.50;;
4430;SDS011;2228;48.140;11.488;2024-02-21T11:21:54;0.93;;;0.60;;
4430;SDS011;2228;48.140;11.488;2024-02-21T11:24:25;1.40;;;0.80;;
4430;SDS011;2228;48.140;11.488;2024-02-21T11:26:54;1.20;;;0.60;;
4430;SDS011;2228;48.140;11.488;2024-02-21T11:29:26;1.90;;;0.70;;
4430;SDS011;2228;48.140;11.488;2024-02-21T11:31:54;2.67;;;0.70;;
4430;SDS011;2228;48.140;11.488;2024-02-21T11:34:22;3.47;;;0.60;;
4430;SDS011;2228;48.140;11.488;2024-02-21T11:36:50;1.97;;;0.70;;
4430;SDS011;2228;48.140;11.488;2024-02-21T11:39:18;1.00;;;0.60;;
4430;SDS011;2228;48.140;11.488;2024-02-21T11:41:46;2.58;;;0.60;;
4430;SDS011;2228;48.140;11.488;2024-02-21T11:44:13;3.60;;;0.70;;
4430;SDS011;2228;48.140;11.488;2024-02-21T11:46:42;3.30;;;0.80;;
4430;SDS011;2228;48.140;11.488;2024-02-21T11:49:12;2.38;;;0.60;;
4430;SDS011;2228;48.140;11.488;2024-02-21T11:51:39;2.10;;;0.50;;
4430;SDS011;2228;48.140;11.488;2024-02-21T11:54:07;2.15;;;0.68;;
4430;SDS011;2228;48.140;11.488;2024-02-21T11:56:34;0.80;;;0.60;;
4430;SDS011;2228;48.140;11.488;2024-02-21T11:59:02;1.80;;;0.60;;
4430;SDS011;2228;48.140;11.488;2024-02-21T12:01:31;0.90;;;0.60;;
4430;SDS011;2228;48.140;11.488;2024-02-21T12:04:00;1.60;;;0.50;;
4430;SDS011;2228;48.140;11.488;2024-02-21T12:06:28;3.42;;;0.68;;
4430;SDS011;2228;48.140;11.488;2024-02-21T12:08:57;1.20;;;0.60;;
4430;SDS011;2228;48.140;11.488;2024-02-21T12:11:25;1.35;;;0.60;;
4430;SDS011;2228;48.140;11.488;2024-02-21T12:13:59;16.52;;;1.60;;
4430;SDS011;2228;48.140;11.488;2024-02-21T12:16:28;5.00;;;0.70;;
4430;SDS011;2228;48.140;11.488;2024-02-21T12:18:56;1.20;;;0.60;;
4430;SDS011;2228;48.140;11.488;2024-02-21T12:21:25;1.00;;;0.60;;
4430;SDS011;2228;48.140;11.488;2024-02-21T12:23:54;1.30;;;0.70;;
4430;SDS011;2228;48.140;11.488;2024-02-21T12:26:21;2.70;;;0.75;;
4430;SDS011;2228;48.140;11.488;2024-02-21T12:28:48;1.70;;;0.60;;
4430;SDS011;2228;48.140;11.488;2024-02-21T12:31:15;2.70;;;0.70;;
4430;SDS011;2228;48.140;11.488;2024-02-21T12:33:43;1.90;;;0.60;;
4430;SDS011;2228;48.140;11.488;2024-02-21T12:36:10;5.60;;;0.70;;
4430;SDS011;2228;48.140;11.488;2024-02-21T12:38:39;5.43;;;0.80;;
4430;SDS011;2228;48.140;11.488;2024-02-21T12:41:06;5.55;;;0.80;;
4430;SDS011;2228;48.140;11.488;2024-02-21T12:43:34;2.40;;;1.17;;
4430;SDS011;2228;48.140;11.488;2024-02-21T12:46:01;4.50;;;0.60;;
4430;SDS011;2228;48.140;11.488;2024-02-21T12:48:29;2.58;;;0.60;;
4430;SDS011;2228;48.140;11.488;2024-02-21T12:50:56;2.50;;;0.60;;
4430;SDS011;2228;48.140;11.488;2024-02-21T12:53:24;9.20;;;1.80;;
4430;SDS011;2228;48.140;11.488;2024-02-21T12:55:52;3.53;;;0.80;;
4430;SDS011;2228;48.140;11.488;2024-02-21T12:58:20;1.65;;;0.60;;
4430;SDS011;2228;48.140;11.488;2024-02-21T13:00:47;0.80;;;0.50;;
4430;SDS011;2228;48.140;11.488;2024-02-21T13:03:15;4.77;;;1.17;;
4430;SDS011;2228;48.140;11.488;2024-02-21T13:05:42;13.55;;;2.25;;
4430;SDS011;2228;48.140;11.488;2024-02-21T13:08:09;2.83;;;0.88;;
4430;SDS011;2228;48.140;11.488;2024-02-21T13:10:37;6.57;;;0.70;;
4430;SDS011;2228;48.140;11.488;2024-02-21T13:13:06;9.25;;;1.08;;
4430;SDS011;2228;48.140;11.488;2024-02-21T13:15:34;10.40;;;1.30;;
4430;SDS011;2228;48.140;11.488;2024-02-21T13:18:02;7.50;;;0.70;;
4430;SDS011;2228;48.140;11.488;2024-02-21T13:20:30;16.60;;;1.67;;
4430;SDS011;2228;48.140;11.488;2024-02-21T13:22:59;9.95;;;0.98;;
4430;SDS011;2228;48.140;11.488;2024-02-21T13:25:27;6.60;;;0.70;;
4430;SDS011;2228;48.140;11.488;2024-02-21T13:27:55;1.60;;;0.60;;
4430;SDS011;2228;48.140;11.488;2024-02-21T13:30:24;1.80;;;0.60;;
4430;SDS011;2228;48.140;11.488;2024-02-21T13:32:52;0.90;;;0.52;;
4430;SDS011;2228;48.140;11.488;2024-02-21T13:35:20;2.55;;;0.60;;
4430;SDS011;2228;48.140;11.488;2024-02-21T13:37:48;2.43;;;0.60;;
4430;SDS011;2228;48.140;11.488;2024-02-21T13:40:15;3.40;;;0.90;;
4430;SDS011;2228;48.140;11.488;2024-02-21T13:42:43;4.00;;;0.70;;
4430;SDS011;2228;48.140;11.488;2024-02-21T13:45:10;1.30;;;0.50;;
4430;SDS011;2228;48.140;11.488;2024-02-21T13:47:39;5.30;;;0.70;;
4430;SDS011;2228;48.140;11.488;2024-02-21T13:50:06;0.70;;;0.50;;
4430;SDS011;2228;48.140;11.488;2024-02-21T13:52:35;2.20;;;0.70;;
4430;SDS011;2228;48.140;11.488;2024-02-21T13:55:03;4.50;;;1.10;;
4430;SDS011;2228;48.140;11.488;2024-02-21T13:57:33;9.07;;;1.20;;
4430;SDS011;2228;48.140;11.488;2024-02-21T14:00:01;6.15;;;1.27;;
4430;SDS011;2228;48.140;11.488;2024-02-21T14:02:30;1.50;;;0.70;;
4430;SDS011;2228;48.140;11.488;2024-02-21T14:04:58;2.28;;;1.00;;
4430;SDS011;2228;48.140;11.488;2024-02-21T14:07:27;12.70;;;1.08;;
4430;SDS011;2228;48.140;11.488;2024-02-21T14:09:57;4.13;;;0.73;;
4430;SDS011;2228;48.140;11.488;2024-02-21T14:12:25;3.90;;;0.70;;
4430;SDS011;2228;48.140;11.488;2024-02-21T14:14:52;4.22;;;0.70;;
4430;SDS011;2228;48.140;11.488;2024-02-21T14:17:22;6.32;;;0.80;;
4430;SDS011;2228;48.140;11.488;2024-02-21T14:19:49;0.82;;;0.50;;
4430;SDS011;2228;48.140;11.488;2024-02-21T14:22:19;1.30;;;0.70;;
4430;SDS011;2228;48.140;11.488;2024-02-21T14:24:46;3.60;;;0.95;;
4430;SDS011;2228;48.140;11.488;2024-02-21T14:27:13;4.50;;;0.80;;
4430;SDS011;2228;48.140;11.488;2024-02-21T14:29:41;2.88;;;0.90;;
4430;SDS011;2228;48.140;11.488;2024-02-21T14:32:09;4.35;;;0.82;;
4430;SDS011;2228;48.140;11.488;2024-02-21T14:34:36;2.47;;;1.00;;
4430;SDS011;2228;48.140;11.488;2024-02-21T14:37:04;3.80;;;0.70;;
4430;SDS011;2228;48.140;11.488;2024-02-21T14:39:32;4.43;;;1.40;;
4430;SDS011;2228;48.140;11.488;2024-02-21T14:42:05;8.02;;;1.10;;
4430;SDS011;2228;48.140;11.488;2024-02-21T14:44:36;1.88;;;0.90;;
4430;SDS011;2228;48.140;11.488;2024-02-21T14:47:03;1.50;;;0.90;;
4430;SDS011;2228;48.140;11.488;2024-02-21T14:49:33;2.50;;;0.90;;
4430;SDS011;2228;48.140;11.488;2024-02-21T14:52:01;3.80;;;0.80;;
4430;SDS011;2228;48.140;11.488;2024-02-21T14:54:28;7.00;;;1.00;;
4430;SDS011;2228;48.140;11.488;2024-02-21T14:56:57;3.40;;;0.80;;
4430;SDS011;2228;48.140;11.488;2024-02-21T14:59:24;1.92;;;0.70;;
4430;SDS011;2228;48.140;11.488;2024-02-21T15:01:51;1.50;;;0.70;;
4430;SDS011;2228;48.140;11.488;2024-02-21T15:04:19;4.07;;;0.80;;
4430;SDS011;2228;48.140;11.488;2024-02-21T15:06:46;5.30;;;1.00;;